Time;durP1;ratioP1;P1;durP2;ratioP2;P2;SDS_P1;SDS_P2;PMS_P1;PMS_P2;Temp;Humidity;BMP_temperature;BMP_pressure;BME280_temperature;BME280_humidity;BME280_pressure;Samples;Min_cycle;Max_cycle;Signal;HPM_P1;HPM_P2
2021/10/12 00:04:15;;;;;;;12.18;4.53;;;;;;;10.31;100.00;102372.16;10582803;28;20044;-59
2021/10/12 00:09:19;;;;;;;13.88;4.30;;;;;;;10.33;100.00;102365.13;10582598;28;20491;-61
2021/10/12 00:14:22;;;;;;;14.43;4.07;;;;;;;10.42;100.00;102363.97;10582363;28;20483;-60
2021/10/12 00:19:25;;;;;;;13.82;4.18;;;;;;;10.47;100.00;102358.59;10582213;28;20043;-61
2021/10/12 00:24:27;;;;;;;14.55;4.47;;;;;;;10.37;100.00;102355.41;10582442;28;20047;-60
2021/10/12 00:29:30;;;;;;;13.93;4.07;;;;;;;10.34;100.00;102343.28;10581761;28;20057;-62
2021/10/12 00:34:32;;;;;;;12.13;4.90;;;;;;;10.38;100.00;102347.50;10582061;28;20059;-59
2021/10/12 00:39:35;;;;;;;13.48;4.22;;;;;;;10.38;100.00;102342.28;10581678;28;20040;-61
2021/10/12 00:44:37;;;;;;;19.55;6.28;;;;;;;10.18;100.00;102342.00;10581879;28;20052;-60
2021/10/12 00:49:39;;;;;;;10.93;4.80;;;;;;;10.38;100.00;102336.19;10581698;28;20410;-61
2021/10/12 00:54:42;;;;;;;9.93;4.75;;;;;;;10.51;100.00;102329.66;10581603;28;20047;-63
2021/10/12 00:59:45;;;;;;;17.50;6.13;;;;;;;10.46;100.00;102335.94;10581251;28;20380;-60
2021/10/12 01:04:48;;;;;;;22.25;7.30;;;;;;;10.09;100.00;102322.22;10581547;28;20059;-62
2021/10/12 01:09:50;;;;;;;17.58;6.13;;;;;;;10.23;100.00;102311.31;10581273;28;20040;-60
2021/10/12 01:14:53;;;;;;;15.98;5.65;;;;;;;10.44;100.00;102301.09;10581079;28;20503;-60
2021/10/12 01:19:55;;;;;;;18.48;7.05;;;;;;;10.24;100.00;102305.19;10580705;28;20055;-61
2021/10/12 01:24:57;;;;;;;17.38;6.32;;;;;;;10.35;100.00;102283.91;10580934;28;20486;-61
2021/10/12 01:30:00;;;;;;;10.80;5.15;;;;;;;10.48;100.00;102280.00;10580634;28;20044;-60
2021/10/12 01:35:03;;;;;;;14.18;6.03;;;;;;;10.29;100.00;102264.00;10580644;28;20047;-61
2021/10/12 01:40:07;;;;;;;14.32;7.15;;;;;;;10.25;100.00;102256.28;10585250;28;20048;-62
2021/10/12 01:45:11;;;;;;;13.93;8.77;;;;;;;10.18;100.00;102243.41;10588374;28;20056;-61
2021/10/12 01:50:13;;;;;;;17.23;8.57;;;;;;;10.19;100.00;102244.28;10588426;28;20060;-61
2021/10/12 01:55:21;;;;;;;10.80;6.30;;;;;;;10.13;100.00;102241.84;10587864;28;20054;-60
2021/10/12 02:00:23;;;;;;;14.70;7.28;;;;;;;10.23;100.00;102232.78;10569951;28;20070;-59
2021/10/12 02:05:26;;;;;;;15.50;6.78;;;;;;;10.34;100.00;102225.47;10587548;28;20073;-60
2021/10/12 02:10:28;;;;;;;16.67;7.90;;;;;;;10.17;100.00;102215.53;10587202;28;20046;-60
2021/10/12 02:15:31;;;;;;;10.90;6.10;;;;;;;9.97;100.00;102199.59;10587093;28;20043;-60
2021/10/12 02:20:33;;;;;;;13.02;6.78;;;;;;;10.08;100.00;102207.97;10586445;28;20490;-59
2021/10/12 02:25:36;;;;;;;14.55;5.13;;;;;;;10.06;100.00;102203.72;10586997;28;20058;-60
2021/10/12 02:30:38;;;;;;;11.75;5.32;;;;;;;10.08;100.00;102183.56;10586047;28;20047;-60
2021/10/12 02:35:40;;;;;;;19.73;7.25;;;;;;;10.02;100.00;102192.50;10586075;28;20395;-61
2021/10/12 02:40:43;;;;;;;15.95;6.60;;;;;;;9.94;100.00;102184.88;10586200;28;20044;-61
2021/10/12 02:45:46;;;;;;;19.05;5.65;;;;;;;9.99;100.00;102182.13;10586169;28;20067;-61
2021/10/12 02:50:48;;;;;;;14.85;5.53;;;;;;;9.92;100.00;102178.84;10585825;28;20044;-60
2021/10/12 02:55:50;;;;;;;11.13;4.75;;;;;;;9.94;100.00;102186.66;10585216;28;20497;-60
2021/10/12 03:00:53;;;;;;;17.63;4.10;;;;;;;9.94;100.00;102169.19;10585081;28;20123;-60
2021/10/12 03:05:56;;;;;;;20.15;6.38;;;;;;;10.00;100.00;102168.13;10585017;28;20052;-61
2021/10/12 03:10:58;;;;;;;14.18;3.85;;;;;;;9.95;100.00;102156.94;10567253;28;20051;-61
2021/10/12 03:16:00;;;;;;;11.35;3.92;;;;;;;10.03;100.00;102153.16;10584690;28;20053;-62
2021/10/12 03:21:03;;;;;;;12.32;4.03;;;;;;;9.78;100.00;102144.44;10566424;28;20131;-63
2021/10/12 03:26:05;;;;;;;9.00;2.95;;;;;;;9.89;100.00;102128.41;10584574;28;20051;-59
2021/10/12 03:31:08;;;;;;;9.20;2.45;;;;;;;9.88;100.00;102126.69;10583811;28;20043;-60
2021/10/12 03:36:16;;;;;;;11.30;2.70;;;;;;;9.92;100.00;102113.44;10583578;28;20527;-60
2021/10/12 03:41:18;;;;;;;11.55;2.63;;;;;;;10.00;100.00;102108.81;10583554;28;20410;-61
2021/10/12 03:46:21;;;;;;;7.35;2.97;;;;;;;9.86;100.00;102101.41;10583358;28;20403;-61
2021/10/12 03:51:23;;;;;;;6.38;2.30;;;;;;;9.95;100.00;102089.81;10582993;28;20054;-59
2021/10/12 03:56:26;;;;;;;7.60;3.35;;;;;;;9.83;100.00;102085.84;10583413;28;20043;-61
2021/10/12 04:01:28;;;;;;;10.60;3.08;;;;;;;9.91;100.00;102077.72;10582343;28;20050;-60
2021/10/12 04:06:31;;;;;;;10.68;3.03;;;;;;;9.63;100.00;102068.19;10582771;28;20130;-59
2021/10/12 04:11:33;;;;;;;7.13;2.90;;;;;;;9.94;100.00;102061.06;10582694;28;20058;-60
2021/10/12 04:16:36;;;;;;;8.60;2.72;;;;;;;9.74;100.00;102061.75;10582436;28;20059;-62
2021/10/12 04:21:38;;;;;;;5.15;2.88;;;;;;;9.74;100.00;102059.13;10582586;28;20043;-62
2021/10/12 04:26:41;;;;;;;11.57;3.47;;;;;;;9.87;100.00;102065.66;10582356;28;20040;-59
2021/10/12 04:31:43;;;;;;;7.68;3.40;;;;;;;9.79;100.00;102054.59;10564221;28;20058;-60
2021/10/12 04:36:46;;;;;;;11.10;3.47;;;;;;;9.73;100.00;102052.19;10581837;28;20127;-60
2021/10/12 04:41:49;;;;;;;11.52;3.63;;;;;;;9.91;100.00;102046.31;10581836;28;20047;-61
2021/10/12 04:46:51;;;;;;;8.40;3.28;;;;;;;9.79;100.00;102046.75;10564070;28;20052;-61
2021/10/12 04:51:54;;;;;;;11.95;4.18;;;;;;;9.73;100.00;102041.72;10581257;28;20445;-60
2021/10/12 04:56:56;;;;;;;10.93;3.22;;;;;;;9.69;100.00;102040.97;10581374;28;20048;-62
2021/10/12 05:01:58;;;;;;;10.52;3.35;;;;;;;9.65;100.00;102027.16;10581293;28;20047;-60
2021/10/12 05:07:01;;;;;;;10.95;2.92;;;;;;;9.76;100.00;102025.94;10581960;28;20040;-61
2021/10/12 05:12:03;;;;;;;8.25;2.92;;;;;;;9.66;100.00;102015.78;10581157;28;20059;-60
2021/10/12 05:17:14;;;;;;;7.68;3.28;;;;;;;9.81;100.00;102010.94;10589422;28;20040;-59
2021/10/12 05:22:16;;;;;;;9.68;3.00;;;;;;;9.84;100.00;102008.22;10589363;28;20055;-61
2021/10/12 05:27:18;;;;;;;10.82;4.22;;;;;;;9.69;100.00;102009.59;10589018;28;20518;-60
2021/10/12 05:32:21;;;;;;;15.75;5.68;;;;;;;9.70;100.00;101999.97;10589201;28;20075;-61
2021/10/12 05:37:23;;;;;;;10.20;4.85;;;;;;;9.83;100.00;101998.66;10588596;28;20414;-62
2021/10/12 05:42:25;;;;;;;9.57;4.97;;;;;;;9.84;100.00;101997.75;10588188;28;20506;-62
2021/10/12 05:47:29;;;;;;;8.25;4.70;;;;;;;9.82;100.00;101999.56;10588160;28;20376;-59
2021/10/12 05:52:32;;;;;;;10.88;6.47;;;;;;;9.74;100.00;101998.97;10587726;28;20039;-61
2021/10/12 06:02:40;;;;;;;11.82;5.20;;;;;;;9.83;100.00;101982.94;10588307;28;20055;-60
2021/10/12 06:07:42;;;;;;;14.48;8.38;;;;;;;9.74;100.00;101970.22;10587402;28;20048;-60
2021/10/12 06:12:44;;;;;;;11.40;9.95;;;;;;;9.83;100.00;101973.38;10587067;28;20054;-60
2021/10/12 06:17:47;;;;;;;16.13;10.40;;;;;;;9.92;100.00;101969.56;10586941;28;20054;-60
2021/10/12 06:22:49;;;;;;;23.00;13.88;;;;;;;9.86;100.00;101961.91;10568763;28;20059;-60
2021/10/12 06:27:52;;;;;;;24.35;16.92;;;;;;;9.98;100.00;101971.09;10586080;28;20048;-60
2021/10/12 06:32:54;;;;;;;17.50;12.55;;;;;;;10.00;100.00;101951.81;10586455;28;20414;-62
2021/10/12 06:38:00;;;;;;;22.15;15.55;;;;;;;10.09;100.00;101958.47;10586437;28;20044;-61
2021/10/12 06:43:03;;;;;;;26.02;16.38;;;;;;;10.02;100.00;101944.78;10585728;28;20544;-61
2021/10/12 06:48:06;;;;;;;22.63;15.55;;;;;;;10.14;100.00;101942.63;10567830;28;20060;-60
2021/10/12 06:53:08;;;;;;;17.95;12.20;;;;;;;10.20;100.00;101930.16;10585369;28;20044;-59
2021/10/12 06:58:11;;;;;;;22.33;14.85;;;;;;;10.16;100.00;101925.09;10585468;28;20054;-61
2021/10/12 07:03:13;;;;;;;21.02;13.50;;;;;;;10.34;100.00;101944.50;10585195;28;20058;-61
2021/10/12 07:08:16;;;;;;;17.90;10.60;;;;;;;10.31;100.00;101932.34;10584789;28;20500;-60
2021/10/12 07:13:22;;;;;;;14.25;12.30;;;;;;;10.39;100.00;101934.72;10584674;28;20048;-60
2021/10/12 07:18:25;;;;;;;16.80;12.40;;;;;;;10.44;100.00;101937.13;10585432;28;20040;-60
2021/10/12 07:23:27;;;;;;;16.77;12.02;;;;;;;10.45;100.00;101934.47;10584456;28;20051;-62
2021/10/12 07:28:30;;;;;;;14.07;9.55;;;;;;;10.60;100.00;101928.63;10584201;28;20050;-59
2021/10/12 07:33:32;;;;;;;26.13;12.25;;;;;;;10.67;100.00;101926.63;10584435;28;20051;-62
2021/10/12 07:38:35;;;;;;;19.80;12.73;;;;;;;10.84;100.00;101922.47;10583150;28;20044;-59
2021/10/12 07:43:37;;;;;;;18.35;13.05;;;;;;;10.86;100.00;101918.88;10584339;28;20053;-60
2021/10/12 07:48:39;;;;;;;22.13;11.45;;;;;;;10.65;100.00;101925.81;10565438;28;20048;-59
2021/10/12 07:53:42;;;;;;;11.80;8.60;;;;;;;10.69;100.00;101926.56;10564897;28;20379;-62
2021/10/12 07:58:44;;;;;;;13.40;8.77;;;;;;;10.89;100.00;101928.38;10583159;28;20051;-60
2021/10/12 08:03:47;;;;;;;11.32;8.55;;;;;;;10.81;100.00;101918.22;10564903;28;20054;-60
2021/10/12 08:08:49;;;;;;;11.15;9.80;;;;;;;10.88;100.00;101924.91;10582394;28;20051;-60
2021/10/12 08:13:57;;;;;;;17.38;10.30;;;;;;;10.86;100.00;101911.03;10582130;28;20511;-59
2021/10/12 08:19:01;;;;;;;17.10;14.23;;;;;;;10.63;100.00;101909.34;10582719;28;20054;-60
2021/10/12 08:24:05;;;;;;;23.88;15.18;;;;;;;10.95;100.00;101910.63;10582161;28;20418;-60
2021/10/12 08:29:08;;;;;;;18.38;12.15;;;;;;;11.09;100.00;101907.44;10581920;28;20058;-60
2021/10/12 08:34:10;;;;;;;16.15;14.10;;;;;;;11.14;100.00;101908.09;10581901;28;20494;-59
2021/10/12 08:39:13;;;;;;;21.95;14.57;;;;;;;11.14;100.00;101894.16;10582017;28;20055;-61
2021/10/12 08:44:15;;;;;;;17.85;12.95;;;;;;;11.20;100.00;101895.69;10582262;28;20051;-60
2021/10/12 08:49:17;;;;;;;23.48;17.23;;;;;;;11.13;100.00;101900.31;10587769;28;20051;-60
2021/10/12 08:54:20;;;;;;;23.42;16.27;;;;;;;11.26;100.00;101890.16;10590611;28;20048;-59
2021/10/12 08:59:22;;;;;;;30.77;19.88;;;;;;;11.04;100.00;101885.81;10590211;28;20050;-61
2021/10/12 09:04:25;;;;;;;25.63;17.05;;;;;;;11.21;100.00;101890.34;10590134;28;20051;-59
2021/10/12 09:09:35;;;;;;;30.42;17.30;;;;;;;11.24;100.00;101884.97;10572302;28;20044;-60
2021/10/12 09:14:56;;;;;;;32.38;19.20;;;;;;;11.33;100.00;101886.34;10571669;28;20054;-61
2021/10/12 09:20:00;;;;;;;40.55;20.35;;;;;;;11.43;100.00;101876.31;10589935;28;20071;-61
2021/10/12 09:25:13;;;;;;;18.13;15.05;;;;;;;11.66;100.00;101883.16;10571324;28;20043;-60
2021/10/12 09:30:15;;;;;;;12.90;9.18;;;;;;;11.69;100.00;101883.03;10571359;28;20066;-60
2021/10/12 09:35:29;;;;;;;13.10;10.65;;;;;;;11.57;100.00;101871.31;10588719;28;20054;-59
2021/10/12 09:40:32;;;;;;;13.57;12.18;;;;;;;11.67;100.00;101864.75;10588881;28;20051;-61
2021/10/12 09:45:39;;;;;;;17.02;14.52;;;;;;;11.95;100.00;101865.28;10570613;28;20058;-60
2021/10/12 09:50:42;;;;;;;17.88;12.23;;;;;;;12.17;100.00;101849.38;10588534;28;20043;-61
2021/10/12 09:55:44;;;;;;;16.63;11.65;;;;;;;12.14;100.00;101847.75;10588122;28;20047;-60
2021/10/12 10:00:46;;;;;;;14.45;9.02;;;;;;;12.38;100.00;101843.09;10586821;28;20051;-61
2021/10/12 10:05:49;;;;;;;11.75;8.93;;;;;;;12.38;100.00;101840.47;10569693;28;20130;-60
2021/10/12 10:10:52;;;;;;;16.77;10.45;;;;;;;12.47;100.00;101838.34;10587329;28;20047;-60
2021/10/12 10:15:55;;;;;;;9.73;8.10;;;;;;;12.82;100.00;101834.78;10586980;28;20048;-61
2021/10/12 10:20:58;;;;;;;17.40;10.60;;;;;;;12.89;100.00;101843.22;10568812;28;20398;-60
2021/10/12 10:26:24;;;;;;;19.75;12.23;;;;;;;14.92;100.00;101823.44;10587067;28;20055;-60
2021/10/12 10:31:40;;;;;;;12.05;6.85;;;;;;;14.39;100.00;101811.56;10586842;28;20074;-60
2021/10/12 10:36:43;;;;;;;6.72;5.10;;;;;;;15.96;100.00;101804.78;10586382;28;20048;-60
2021/10/12 10:41:47;;;;;;;9.32;4.85;;;;;;;17.04;100.00;101805.59;10585861;28;20406;-60
2021/10/12 10:46:49;;;;;;;8.63;3.85;;;;;;;16.18;100.00;101812.16;10586260;28;20054;-61
2021/10/12 10:52:04;;;;;;;9.02;4.35;;;;;;;16.28;100.00;101800.03;10567794;28;20097;-60
2021/10/12 10:57:10;;;;;;;7.40;2.97;;;;;;;18.44;91.85;101798.25;10567550;28;20490;-60
2021/10/12 11:02:45;;;;;;;4.20;2.33;;;;;;;15.78;98.60;101805.00;10585051;28;20483;-60
2021/10/12 11:07:47;;;;;;;9.13;3.00;;;;;;;14.79;100.00;101804.00;10585582;28;20067;-60
2021/10/12 11:12:50;;;;;;;5.68;2.20;;;;;;;14.93;100.00;101800.53;10583640;28;20134;-60
2021/10/12 11:18:10;;;;;;;5.30;2.33;;;;;;;14.25;100.00;101794.75;10584493;28;20064;-60
2021/10/12 11:23:20;;;;;;;5.93;2.15;;;;;;;14.04;100.00;101791.56;10584755;28;20051;-60
2021/10/12 11:28:25;;;;;;;4.32;1.70;;;;;;;14.17;100.00;101781.19;10584053;28;20498;-60
2021/10/12 11:33:39;;;;;;;3.45;1.60;;;;;;;14.62;100.00;101776.00;10583508;28;20051;-60
2021/10/12 11:38:48;;;;;;;6.45;2.38;;;;;;;15.40;100.00;101779.19;10583570;28;20043;-59
2021/10/12 11:43:54;;;;;;;2.72;1.38;;;;;;;14.72;100.00;101777.16;10583658;28;20047;-60
2021/10/12 11:48:57;;;;;;;1.48;1.17;;;;;;;14.84;100.00;101773.81;10583546;28;20044;-59
2021/10/12 11:54:00;;;;;;;3.70;2.10;;;;;;;15.38;100.00;101788.13;10565071;28;20049;-60
2021/10/12 11:59:05;;;;;;;0.90;0.75;;;;;;;15.07;100.00;101778.63;10583142;28;20058;-60
2021/10/12 12:04:07;;;;;;;1.75;1.45;;;;;;;14.31;100.00;101773.34;10583192;28;20047;-59
2021/10/12 12:09:20;;;;;;;3.53;0.80;;;;;;;14.85;100.00;101778.13;10582745;28;20048;-60
2021/10/12 12:14:24;;;;;;;2.08;0.85;;;;;;;14.83;100.00;101780.00;10564377;28;20376;-60
2021/10/12 12:19:28;;;;;;;3.13;1.15;;;;;;;15.01;100.00;101771.91;10564257;28;20421;-62
2021/10/12 12:24:31;;;;;;;2.72;1.10;;;;;;;15.11;100.00;101778.31;10582330;28;20054;-60
2021/10/12 12:29:33;;;;;;;0.73;0.70;;;;;;;13.73;100.00;101784.50;10582677;28;20044;-59
2021/10/12 12:34:38;;;;;;;1.20;0.60;;;;;;;13.83;100.00;101787.50;10581585;28;20052;-60
2021/10/12 12:39:41;;;;;;;1.73;0.57;;;;;;;14.49;100.00;101789.00;10581792;28;20043;-60
2021/10/12 12:44:44;;;;;;;2.45;0.63;;;;;;;14.63;100.00;101791.72;10582120;28;20082;-60
2021/10/12 12:49:46;;;;;;;3.22;0.40;;;;;;;14.29;97.54;101790.19;10581535;28;20404;-60
2021/10/12 12:54:49;;;;;;;0.57;0.30;;;;;;;14.47;90.71;101790.88;10563902;28;20075;-60
2021/10/12 13:00:08;;;;;;;1.90;0.40;;;;;;;14.62;84.46;101790.03;10581487;28;20044;-60
2021/10/12 13:05:10;;;;;;;1.65;0.50;;;;;;;15.15;84.21;101784.28;10581541;28;20413;-59
2021/10/12 13:10:12;;;;;;;3.47;0.98;;;;;;;14.45;88.67;101782.22;10581277;28;20040;-59
2021/10/12 13:15:15;;;;;;;2.70;0.80;;;;;;;14.37;95.56;101776.56;10581471;28;20059;-60
2021/10/12 13:20:18;;;;;;;2.38;0.60;;;;;;;14.19;94.65;101783.72;10581174;28;20067;-60
2021/10/12 13:25:20;;;;;;;1.80;0.80;;;;;;;14.02;95.60;101793.44;10581829;28;20056;-59
2021/10/12 13:30:22;;;;;;;5.22;0.90;;;;;;;13.27;96.66;101792.25;10581017;28;20055;-59
2021/10/12 13:35:25;;;;;;;10.18;1.30;;;;;;;13.44;95.10;101783.47;10584448;28;20399;-60
2021/10/12 13:40:27;;;;;;;2.33;0.77;;;;;;;13.49;93.25;101789.34;10588853;28;20044;-60
2021/10/12 13:45:30;;;;;;;5.25;0.77;;;;;;;13.49;97.23;101790.19;10588565;28;20059;-60
2021/10/12 13:50:32;;;;;;;5.32;0.82;;;;;;;13.87;88.97;101786.38;10587954;28;20430;-60
2021/10/12 13:55:34;;;;;;;2.28;0.82;;;;;;;13.87;91.11;101792.50;10588025;28;20043;-60
2021/10/12 14:00:38;;;;;;;3.95;1.10;;;;;;;13.74;87.83;101800.22;10588006;28;20051;-60
2021/10/12 14:05:40;;;;;;;5.40;1.02;;;;;;;13.90;82.88;101799.38;10588118;28;20075;-59
2021/10/12 14:10:44;;;;;;;3.90;0.70;;;;;;;13.64;80.33;101804.28;10587383;28;20044;-60
2021/10/12 14:15:46;;;;;;;3.72;0.95;;;;;;;13.59;78.54;101811.59;10569560;28;20051;-59
2021/10/12 14:20:51;;;;;;;2.83;0.85;;;;;;;14.01;78.68;101810.16;10587056;28;20043;-60
2021/10/12 14:25:53;;;;;;;4.22;1.02;;;;;;;14.30;81.86;101815.56;10588010;28;20043;-59
2021/10/12 14:30:56;;;;;;;2.25;0.77;;;;;;;14.72;66.18;101829.03;10586282;28;20509;-60
2021/10/12 14:35:58;;;;;;;4.18;1.35;;;;;;;19.96;51.37;101822.78;10586417;28;20052;-60
2021/10/12 14:41:25;;;;;;;3.30;1.30;;;;;;;21.94;40.08;101817.56;10586264;28;20051;-60
2021/10/12 14:46:27;;;;;;;3.80;0.98;;;;;;;22.42;42.94;101814.09;10568584;28;20061;-60
2021/10/12 14:51:32;;;;;;;3.38;1.05;;;;;;;14.81;58.01;101828.47;10585594;28;20047;-60
2021/10/12 14:56:34;;;;;;;7.00;1.23;;;;;;;14.13;71.77;101829.69;10585566;28;20051;-60
2021/10/12 15:01:36;;;;;;;3.05;1.30;;;;;;;13.97;72.25;101828.84;10567055;28;20518;-60
2021/10/12 15:06:39;;;;;;;2.22;0.77;;;;;;;14.23;70.87;101830.88;10585199;28;20081;-60
2021/10/12 15:11:41;;;;;;;6.10;1.08;;;;;;;14.26;67.71;101835.13;10585219;28;20043;-60
2021/10/12 15:16:44;;;;;;;3.58;1.05;;;;;;;13.77;67.47;101833.44;10585142;28;20047;-60
2021/10/12 15:21:46;;;;;;;3.45;0.90;;;;;;;13.53;70.93;101844.34;10584170;28;20384;-60
2021/10/12 15:26:49;;;;;;;4.28;1.33;;;;;;;13.19;77.08;101855.75;10584915;28;20055;-60
2021/10/12 15:31:52;;;;;;;7.72;1.98;;;;;;;12.26;76.70;101860.28;10584446;28;20047;-59
2021/10/12 15:36:54;;;;;;;4.60;1.20;;;;;;;12.05;81.77;101856.94;10584489;28;20054;-59
2021/10/12 15:41:59;;;;;;;6.32;1.45;;;;;;;11.90;81.52;101871.56;10583569;28;20051;-59
2021/10/12 15:47:04;;;;;;;5.88;1.13;;;;;;;11.83;83.68;101861.41;10583508;28;20051;-60
2021/10/12 15:52:08;;;;;;;6.97;2.25;;;;;;;11.51;85.18;101864.56;10583459;28;20047;-60
2021/10/12 15:57:11;;;;;;;7.13;1.70;;;;;;;11.53;82.58;101874.97;10583076;28;20054;-59
2021/10/12 16:02:14;;;;;;;6.75;1.15;;;;;;;11.23;80.44;101887.66;10565079;28;20065;-60
2021/10/12 16:07:16;;;;;;;9.68;1.65;;;;;;;11.04;76.29;101885.81;10583376;28;20055;-59
2021/10/12 16:12:19;;;;;;;8.55;1.88;;;;;;;10.91;75.62;101884.63;10582523;28;20058;-60
2021/10/12 16:22:42;;;;;;;8.90;1.65;;;;;;;10.83;78.57;101902.44;10583131;28;20063;-60
2021/10/12 16:27:44;;;;;;;4.45;1.50;;;;;;;10.61;79.70;101905.94;10564734;28;20599;-59
2021/10/12 16:32:51;;;;;;;6.68;1.52;;;;;;;10.69;81.26;101911.72;10581844;28;20043;-59
2021/10/12 16:37:53;;;;;;;6.25;1.58;;;;;;;10.19;82.46;101917.97;10563957;28;20505;-59
2021/10/12 16:42:56;;;;;;;6.43;3.00;;;;;;;10.47;84.75;101927.41;10581999;28;20047;-60
2021/10/12 16:47:58;;;;;;;3.65;1.45;;;;;;;10.08;88.39;101933.22;10581837;28;20054;-60
2021/10/12 16:53:00;;;;;;;8.80;1.77;;;;;;;10.06;90.70;101944.66;10581629;28;20476;-60
2021/10/12 16:58:13;;;;;;;5.78;1.75;;;;;;;9.91;91.57;101959.16;10581462;28;20075;-59
2021/10/12 17:03:16;;;;;;;12.80;6.80;;;;;;;9.71;91.79;101971.16;10581434;28;20398;-60
2021/10/12 17:08:18;;;;;;;7.95;3.33;;;;;;;9.59;93.64;101968.97;10565435;28;20054;-60
2021/10/12 17:13:21;;;;;;;7.20;2.40;;;;;;;9.35;93.97;101987.22;10589574;28;20051;-60
2021/10/12 17:18:23;;;;;;;10.55;3.50;;;;;;;9.55;95.82;101983.94;10589917;28;20043;-59
2021/10/12 17:23:25;;;;;;;14.15;4.43;;;;;;;9.32;95.75;101991.69;10589428;28;20043;-60
2021/10/12 17:28:28;;;;;;;8.07;3.05;;;;;;;9.08;99.67;101997.66;10589213;28;20051;-59
2021/10/12 17:33:31;;;;;;;6.25;2.95;;;;;;;9.05;100.00;102000.34;10588873;28;20052;-60
2021/10/12 17:38:33;;;;;;;8.80;2.08;;;;;;;8.86;98.55;101997.47;10588689;28;20399;-59
2021/10/12 17:43:36;;;;;;;9.68;2.25;;;;;;;8.59;100.00;102007.00;10588633;28;20051;-60
2021/10/12 17:48:39;;;;;;;6.25;2.10;;;;;;;8.51;100.00;102012.44;10570581;28;20047;-59
2021/10/12 17:54:05;;;;;;;4.80;1.88;;;;;;;8.46;100.00;102024.78;10587904;28;20039;-59
2021/10/12 17:59:08;;;;;;;5.00;1.77;;;;;;;8.23;100.00;102033.22;10570436;28;20044;-60
2021/10/12 18:04:17;;;;;;;5.60;1.95;;;;;;;8.64;100.00;102038.19;10569484;28;20407;-60
2021/10/12 18:09:21;;;;;;;7.93;2.95;;;;;;;8.38;100.00;102044.97;10587785;28;20044;-60
2021/10/12 18:14:23;;;;;;;6.00;2.40;;;;;;;8.66;100.00;102044.22;10587250;28;20044;-60
2021/10/12 18:19:25;;;;;;;5.72;2.75;;;;;;;8.41;100.00;102044.91;10586443;28;20055;-59
2021/10/12 18:24:27;;;;;;;10.32;2.60;;;;;;;8.28;100.00;102051.38;10587162;28;20054;-59
2021/10/12 18:29:30;;;;;;;12.00;3.90;;;;;;;8.28;100.00;102056.56;10587426;28;20043;-60
2021/10/12 18:34:32;;;;;;;6.63;2.38;;;;;;;7.98;100.00;102054.78;10586348;28;20051;-60
2021/10/12 18:39:49;;;;;;;5.90;1.75;;;;;;;8.00;100.00;102059.91;10586414;28;20048;-59
2021/10/12 18:44:52;;;;;;;6.38;2.65;;;;;;;8.17;100.00;102068.16;10586345;28;20047;-60
2021/10/12 18:50:15;;;;;;;10.52;3.45;;;;;;;7.94;100.00;102068.78;10585535;28;20043;-60
2021/10/12 18:55:17;;;;;;;20.88;6.45;;;;;;;7.97;100.00;102079.13;10568185;28;20047;-60
2021/10/12 19:00:20;;;;;;;10.65;6.03;;;;;;;7.90;100.00;102081.91;10585315;28;20046;-59
2021/10/12 19:05:23;;;;;;;12.00;4.75;;;;;;;7.89;100.00;102096.72;10567218;28;20055;-60
2021/10/12 19:10:25;;;;;;;11.60;5.20;;;;;;;7.94;100.00;102094.00;10584903;28;20046;-59
2021/10/12 19:15:28;;;;;;;16.73;6.18;;;;;;;7.83;100.00;102083.81;10584750;28;20044;-59
2021/10/12 19:20:30;;;;;;;14.02;7.13;;;;;;;8.19;100.00;102091.59;10584726;28;20062;-59
2021/10/12 19:25:32;;;;;;;14.00;6.03;;;;;;;8.08;100.00;102088.41;10584358;28;20514;-59
2021/10/12 19:30:35;;;;;;;21.65;8.82;;;;;;;7.77;100.00;102087.47;10583790;28;20067;-59
2021/10/12 19:35:41;;;;;;;20.08;9.88;;;;;;;7.96;100.00;102102.63;10583648;28;20043;-60
2021/10/12 19:40:44;;;;;;;15.95;6.15;;;;;;;8.03;100.00;102095.50;10584004;28;20394;-59
2021/10/12 19:45:47;;;;;;;15.02;4.45;;;;;;;8.11;100.00;102097.03;10583945;28;20051;-59
2021/10/12 19:50:50;;;;;;;10.32;3.42;;;;;;;7.71;100.00;102097.19;10583365;28;20051;-60
2021/10/12 19:55:52;;;;;;;9.20;3.22;;;;;;;7.66;100.00;102099.88;10583390;28;20043;-59
2021/10/12 20:00:55;;;;;;;13.13;3.35;;;;;;;7.33;100.00;102094.59;10583206;28;20056;-59
2021/10/12 20:05:58;;;;;;;10.32;3.83;;;;;;;7.76;100.00;102103.13;10583168;28;20043;-60
2021/10/12 20:11:00;;;;;;;9.40;3.67;;;;;;;7.59;100.00;102101.78;10582727;28;20482;-59
2021/10/12 20:16:05;;;;;;;15.52;4.00;;;;;;;7.74;100.00;102108.38;10582924;28;20054;-59
2021/10/12 20:21:07;;;;;;;8.07;3.60;;;;;;;7.50;100.00;102107.22;10582303;28;20414;-59
2021/10/12 20:26:09;;;;;;;9.75;3.00;;;;;;;7.62;100.00;102106.94;10582701;28;20054;-60
2021/10/12 20:31:12;;;;;;;12.13;5.40;;;;;;;7.75;100.00;102111.84;10581960;28;20058;-59
2021/10/12 20:36:14;;;;;;;10.30;4.50;;;;;;;7.72;100.00;102117.16;10564523;28;20061;-60
2021/10/12 20:41:17;;;;;;;13.20;5.20;;;;;;;7.53;100.00;102117.59;10581681;28;20475;-59
2021/10/12 20:46:19;;;;;;;16.67;4.80;;;;;;;7.54;100.00;102123.66;10581348;28;20483;-60
2021/10/12 20:51:21;;;;;;;13.20;4.13;;;;;;;7.57;100.00;102129.66;10581975;28;20127;-60
2021/10/12 20:56:24;;;;;;;8.23;3.38;;;;;;;7.65;100.00;102129.47;10581605;28;20475;-59
2021/10/12 21:01:27;;;;;;;8.02;3.42;;;;;;;7.73;100.00;102137.97;10581387;28;20475;-60
2021/10/12 21:06:29;;;;;;;14.85;3.17;;;;;;;7.77;100.00;102142.22;10581844;28;20131;-59
2021/10/12 21:11:32;;;;;;;10.15;3.00;;;;;;;7.66;100.00;102145.97;10581326;28;20046;-59
2021/10/12 21:16:34;;;;;;;14.35;3.17;;;;;;;7.75;100.00;102148.34;10581702;28;20118;-59
2021/10/12 21:21:38;;;;;;;7.28;2.38;;;;;;;7.89;100.00;102148.03;10581157;28;20097;-59
2021/10/12 21:26:41;;;;;;;6.90;2.55;;;;;;;7.30;100.00;102166.75;10581054;28;20048;-59
2021/10/12 21:31:43;;;;;;;9.45;2.33;;;;;;;7.71;100.00;102155.38;10581492;28;20052;-59
2021/10/12 21:36:49;;;;;;;7.90;2.50;;;;;;;7.84;100.00;102168.16;10580705;28;20043;-60
2021/10/12 21:41:51;;;;;;;7.88;2.40;;;;;;;7.68;100.00;102152.84;10580867;28;20043;-59
2021/10/12 21:46:53;;;;;;;8.57;2.38;;;;;;;7.48;100.00;102168.97;10580754;28;20059;-60
2021/10/12 21:51:56;;;;;;;6.10;2.58;;;;;;;8.04;100.00;102162.44;10580695;28;20105;-59
2021/10/12 21:56:58;;;;;;;13.48;2.85;;;;;;;7.91;100.00;102161.88;10584909;28;20043;-59
2021/10/12 22:02:01;;;;;;;3.65;2.28;;;;;;;7.94;100.00;102156.59;10587584;28;20479;-60
2021/10/12 22:07:03;;;;;;;14.00;2.13;;;;;;;7.71;100.00;102164.97;10588180;28;20047;-59
2021/10/12 22:12:06;;;;;;;7.95;2.42;;;;;;;7.94;100.00;102167.03;10587990;28;20058;-60
2021/10/12 22:17:09;;;;;;;11.25;2.47;;;;;;;7.90;100.00;102160.16;10569173;28;20088;-60
2021/10/12 22:22:11;;;;;;;11.10;2.85;;;;;;;7.90;100.00;102163.63;10586973;28;20510;-59
2021/10/12 22:27:14;;;;;;;11.57;2.20;;;;;;;7.93;100.00;102160.09;10587566;28;20048;-60
2021/10/12 22:32:16;;;;;;;11.43;2.50;;;;;;;7.70;100.00;102160.63;10586379;28;20071;-59
2021/10/12 22:37:19;;;;;;;4.28;1.85;;;;;;;7.91;100.00;102169.69;10586305;28;20398;-59
2021/10/12 22:42:21;;;;;;;6.05;2.00;;;;;;;7.86;100.00;102174.16;10568186;28;20437;-59
2021/10/12 22:47:23;;;;;;;3.30;1.85;;;;;;;7.98;100.00;102176.47;10586197;28;20491;-60
2021/10/12 22:52:25;;;;;;;10.40;2.70;;;;;;;7.90;100.00;102170.59;10585802;28;20384;-60
2021/10/12 22:57:28;;;;;;;8.75;2.00;;;;;;;7.85;100.00;102167.22;10567767;28;20056;-60
2021/10/12 23:02:30;;;;;;;12.45;3.25;;;;;;;7.79;100.00;102173.47;10586135;28;20051;-59
2021/10/12 23:07:33;;;;;;;12.90;3.33;;;;;;;7.94;100.00;102180.91;10585259;28;20409;-60
2021/10/12 23:12:35;;;;;;;5.93;2.13;;;;;;;7.98;100.00;102174.75;10585291;28;20046;-59